Flight Track Log - Related Links

Times and Time Zones

All times are in EDT time to prevent confusion due to time zone crossing. See the FIN666 flight status page for this flight to view local times or setup timezone preferences in your user account.

Time Position Orientation Groundspeed Altitude Reporting Facility
EDT Latitude Longitude Course Direction KTS MPH feet Rate Location/Type
Thu 08:24:00 AM 55.8329 13.1000 49° Northeast  Level Estimated
Thu 08:25:00 AM 55.9042 13.2491 50° Northeast  Level Estimated
Thu 08:26:00 AM 55.9753 13.3988 50° Northeast  Level Estimated
Thu 08:27:00 AM 56.0482 13.5532 50° Northeast  Level Estimated
Thu 08:28:00 AM 56.1209 13.7083 50° Northeast  Level Estimated
Thu 08:29:00 AM 56.1935 13.8639 50° Northeast  Level Estimated
Thu 08:30:00 AM 56.2658 14.0201 50° Northeast  Level Estimated
Thu 08:31:00 AM 56.3379 14.1769 50° Northeast  Level Estimated
Thu 08:32:00 AM 56.4099 14.3343 50° Northeast  Level Estimated
Thu 08:33:00 AM 56.4816 14.4922 51° Northeast  Level Estimated
Thu 08:34:00 AM 56.5532 14.6508 51° Northeast  Level Estimated
Thu 08:35:00 AM 56.6245 14.8100 51° Northeast  Level Estimated
Thu 08:36:00 AM 56.6956 14.9698 51° Northeast  Level Estimated
Thu 08:37:00 AM 56.7666 15.1302 51° Northeast  Level Estimated
Thu 08:38:00 AM 56.8373 15.2912 51° Northeast  Level Estimated
Thu 08:39:00 AM 56.9078 15.4528 51° Northeast  Level Estimated
Thu 08:40:00 AM 56.9781 15.6150 51° Northeast  Level Estimated
Thu 08:41:00 AM 57.0482 15.7778 52° Northeast  Level Estimated
Thu 08:42:00 AM 57.1181 15.9412 52° Northeast  Level Estimated
Thu 08:43:00 AM 57.1878 16.1053 52° Northeast  Level Estimated
Thu 08:44:00 AM 57.2572 16.2700 52° Northeast  Level Estimated
Thu 08:45:00 AM 57.3275 16.4376 52° Northeast  Level Estimated
Thu 08:46:00 AM 57.3975 16.6059 52° Northeast  Level Estimated
Thu 08:47:00 AM 57.4673 16.7749 52° Northeast  Level Estimated
Thu 08:48:00 AM 57.5368 16.9445 53° Northeast  Level Estimated
Thu 08:49:00 AM 57.6061 17.1147 53° Northeast  Level Estimated
Thu 08:50:00 AM 57.6752 17.2856 53° Northeast  Level Estimated
Thu 08:51:00 AM 57.7441 17.4571 53° Northeast  Level Estimated
Thu 08:52:00 AM 57.8127 17.6294 53° Northeast  Level Estimated
Thu 08:53:00 AM 57.8811 17.8022 53° Northeast  Level Estimated
Thu 08:54:00 AM 57.9493 17.9757 53° Northeast  Level Estimated
Thu 08:55:00 AM 58.0172 18.1499 54° Northeast  Level Estimated
Thu 08:56:00 AM 58.0849 18.3247 54° Northeast  Level Estimated
Thu 08:57:00 AM 58.1523 18.5002 54° Northeast  Level Estimated
Thu 08:58:00 AM 58.2195 18.6763 54° Northeast  Level Estimated
Thu 08:59:00 AM 58.2865 18.8532 54° Northeast  Level Estimated
Thu 09:00:00 AM 58.3532 19.0307 54° Northeast  Level Estimated
Thu 09:01:00 AM 58.4197 19.2088 54° Northeast  Level Estimated
Thu 09:02:00 AM 58.4859 19.3877 55° Northeast  Level Estimated
Thu 09:03:00 AM 58.5518 19.5672 55° Northeast  Level Estimated
Thu 09:04:00 AM 58.6176 19.7474 55° Northeast  Level Estimated
Thu 09:05:00 AM 58.6830 19.9282 55° Northeast  Level Estimated
Thu 09:06:00 AM 58.7482 20.1098 55° Northeast  Level Estimated
Thu 09:07:00 AM 58.8132 20.2920 55° Northeast  Level Estimated
Thu 09:08:00 AM 58.8779 20.4749 56° Northeast  Level Estimated
Thu 09:09:00 AM 58.9423 20.6585 56° Northeast  Level Estimated
Thu 09:10:00 AM 59.0065 20.8428 56° Northeast  Level Estimated
Thu 09:11:00 AM 59.0704 21.0277 56° Northeast  Level Estimated
Thu 09:12:00 AM 59.1341 21.2134 56° Northeast  Level Estimated
Thu 09:13:00 AM 59.1975 21.3997 56° Northeast  Level Estimated
Thu 09:14:00 AM 59.2597 21.5841 57° Northeast  Level Estimated
Thu 09:15:00 AM 59.3217 21.7692 57° Northeast  Level Estimated
Thu 09:16:00 AM 59.3834 21.9549 57° Northeast  Level Estimated
Thu 09:17:00 AM 59.4448 22.1413 57° Northeast  Level Estimated
Thu 09:18:00 AM 59.5060 22.3284 57° Northeast  Level Estimated
Thu 09:19:00 AM 59.5669 22.5162 57° Northeast  Level Estimated
Thu 09:20:00 AM 59.6275 22.7047 57° Northeast  Level Estimated
Thu 09:21:00 AM 59.6879 22.8938 58° Northeast  Level Estimated
Thu 09:22:00 AM 59.7480 23.0836 58° Northeast  Level Estimated
Thu 09:23:00 AM 59.8078 23.2741 58° Northeast  Level Estimated
Thu 09:24:00 AM 59.8673 23.4653 58° Northeast  Level Estimated
Thu 09:25:00 AM 59.9266 23.6571 58° Northeast  Level Estimated
Thu 09:26:00 AM 59.9856 23.8497 58° Northeast  Level Estimated
Thu 09:27:00 AM 60.0443 24.0429 59° Northeast  Level Estimated
Thu 09:28:00 AM 60.1027 24.2368 59° Northeast  Level Estimated
Thu 09:29:00 AM 60.1608 24.4314 59° Northeast  Level Estimated
Thu 09:30:00 AM 60.2187 24.6267 59° Northeast  Level Estimated
Thu 09:31:00 AM 60.2762 24.8227 59° Northeast  Level Estimated
Thu 09:32:00 AM 60.3172 24.9633 59° Northeast  Level Estimated
Thu 09:33:00 AM 60.3172 24.9633 North  Level Estimated
Thu 09:34:00 AM 60.3172 24.9633 North  Level Estimated
Thu 09:35:00 AM 60.3172 24.9633 North  Level Estimated
Thu 09:36:00 AM 60.3172 24.9633 North  Level Estimated
Thu 09:37:00 AM 60.3172 24.9633 North  Level Estimated
Thu 09:38:00 AM 60.3172 24.9633 North  Level Estimated
Thu 09:39:00 AM 60.3172 24.9633 North  Level Estimated
Thu 09:40:00 AM 60.3172 24.9633 North  Level Estimated
Thu 09:41:00 AM 60.3172 24.9633 North  Level Estimated
Thu 09:42:00 AM 60.3172 24.9633 North  Level Estimated
Thu 09:43:00 AM 60.3172 24.9633 North  Level Estimated

Login

Don't have an account? Register now (free) for customized features, flight alerts, and more!